sensor_id;sensor_type;location;lat;lon;timestamp;P1;durP1;ratioP1;P2;durP2;ratioP2
11111;SDS011;5609;49.466;8.468;2022-10-31T00:01:42;14.10;;;10.20;;
11111;SDS011;5609;49.466;8.468;2022-10-31T00:04:10;15.27;;;10.43;;
11111;SDS011;5609;49.466;8.468;2022-10-31T00:06:36;13.23;;;10.30;;
11111;SDS011;5609;49.466;8.468;2022-10-31T00:09:03;11.97;;;9.43;;
11111;SDS011;5609;49.466;8.468;2022-10-31T00:11:32;14.53;;;9.50;;
11111;SDS011;5609;49.466;8.468;2022-10-31T00:13:59;16.17;;;9.70;;
11111;SDS011;5609;49.466;8.468;2022-10-31T00:16:26;15.83;;;9.70;;
11111;SDS011;5609;49.466;8.468;2022-10-31T00:18:54;14.87;;;10.50;;
11111;SDS011;5609;49.466;8.468;2022-10-31T00:21:22;12.73;;;9.37;;
11111;SDS011;5609;49.466;8.468;2022-10-31T00:23:50;14.53;;;9.40;;
11111;SDS011;5609;49.466;8.468;2022-10-31T00:26:17;12.47;;;9.23;;
11111;SDS011;5609;49.466;8.468;2022-10-31T00:28:46;12.60;;;8.93;;
11111;SDS011;5609;49.466;8.468;2022-10-31T00:31:13;14.07;;;9.70;;
11111;SDS011;5609;49.466;8.468;2022-10-31T00:33:40;11.90;;;8.93;;
11111;SDS011;5609;49.466;8.468;2022-10-31T00:36:07;14.33;;;9.27;;
11111;SDS011;5609;49.466;8.468;2022-10-31T00:38:38;14.33;;;8.87;;
11111;SDS011;5609;49.466;8.468;2022-10-31T00:41:05;9.90;;;8.60;;
11111;SDS011;5609;49.466;8.468;2022-10-31T00:43:32;12.17;;;8.93;;
11111;SDS011;5609;49.466;8.468;2022-10-31T00:46:00;11.00;;;8.90;;
11111;SDS011;5609;49.466;8.468;2022-10-31T00:48:27;14.63;;;8.50;;
11111;SDS011;5609;49.466;8.468;2022-10-31T00:50:54;11.60;;;8.60;;
11111;SDS011;5609;49.466;8.468;2022-10-31T00:53:21;14.37;;;8.50;;
11111;SDS011;5609;49.466;8.468;2022-10-31T00:55:48;10.90;;;8.77;;
11111;SDS011;5609;49.466;8.468;2022-10-31T00:58:15;11.80;;;8.97;;
11111;SDS011;5609;49.466;8.468;2022-10-31T01:00:42;11.80;;;8.77;;
11111;SDS011;5609;49.466;8.468;2022-10-31T01:03:10;12.23;;;8.60;;
11111;SDS011;5609;49.466;8.468;2022-10-31T01:05:37;13.43;;;8.90;;
11111;SDS011;5609;49.466;8.468;2022-10-31T01:08:03;10.70;;;9.10;;
11111;SDS011;5609;49.466;8.468;2022-10-31T01:10:30;11.87;;;8.60;;
11111;SDS011;5609;49.466;8.468;2022-10-31T01:12:57;11.23;;;8.53;;
11111;SDS011;5609;49.466;8.468;2022-10-31T01:15:24;12.30;;;8.80;;
11111;SDS011;5609;49.466;8.468;2022-10-31T01:17:51;14.37;;;8.83;;
11111;SDS011;5609;49.466;8.468;2022-10-31T01:20:19;10.60;;;8.60;;
11111;SDS011;5609;49.466;8.468;2022-10-31T01:22:46;11.50;;;8.50;;
11111;SDS011;5609;49.466;8.468;2022-10-31T01:25:12;12.80;;;8.87;;
11111;SDS011;5609;49.466;8.468;2022-10-31T01:27:39;13.40;;;8.50;;
11111;SDS011;5609;49.466;8.468;2022-10-31T01:30:06;10.83;;;8.33;;
11111;SDS011;5609;49.466;8.468;2022-10-31T01:32:33;11.27;;;8.83;;
11111;SDS011;5609;49.466;8.468;2022-10-31T01:35:00;11.03;;;7.90;;
11111;SDS011;5609;49.466;8.468;2022-10-31T01:37:28;13.90;;;8.20;;
11111;SDS011;5609;49.466;8.468;2022-10-31T01:39:57;11.53;;;8.50;;
11111;SDS011;5609;49.466;8.468;2022-10-31T01:42:23;9.33;;;8.10;;
11111;SDS011;5609;49.466;8.468;2022-10-31T01:44:52;12.20;;;8.73;;
11111;SDS011;5609;49.466;8.468;2022-10-31T01:47:21;12.40;;;8.23;;
11111;SDS011;5609;49.466;8.468;2022-10-31T01:50:03;10.33;;;8.07;;
11111;SDS011;5609;49.466;8.468;2022-10-31T01:52:35;12.27;;;8.30;;
11111;SDS011;5609;49.466;8.468;2022-10-31T01:55:05;13.67;;;8.67;;
11111;SDS011;5609;49.466;8.468;2022-10-31T01:57:35;14.87;;;8.23;;
11111;SDS011;5609;49.466;8.468;2022-10-31T02:00:07;10.23;;;8.20;;
11111;SDS011;5609;49.466;8.468;2022-10-31T02:02:36;11.83;;;8.30;;
11111;SDS011;5609;49.466;8.468;2022-10-31T02:05:04;10.87;;;8.60;;
11111;SDS011;5609;49.466;8.468;2022-10-31T02:07:36;13.50;;;8.10;;
11111;SDS011;5609;49.466;8.468;2022-10-31T02:10:08;10.20;;;8.43;;
11111;SDS011;5609;49.466;8.468;2022-10-31T02:12:35;10.03;;;7.77;;
11111;SDS011;5609;49.466;8.468;2022-10-31T02:15:03;10.63;;;8.40;;
11111;SDS011;5609;49.466;8.468;2022-10-31T02:17:30;12.40;;;8.13;;
11111;SDS011;5609;49.466;8.468;2022-10-31T02:20:00;9.80;;;7.80;;
11111;SDS011;5609;49.466;8.468;2022-10-31T02:22:40;11.50;;;8.33;;
11111;SDS011;5609;49.466;8.468;2022-10-31T02:25:23;11.20;;;8.60;;
11111;SDS011;5609;49.466;8.468;2022-10-31T02:28:16;10.13;;;7.90;;
11111;SDS011;5609;49.466;8.468;2022-10-31T02:31:05;11.53;;;8.70;;
11111;SDS011;5609;49.466;8.468;2022-10-31T02:33:45;13.20;;;8.67;;
11111;SDS011;5609;49.466;8.468;2022-10-31T02:36:19;11.10;;;9.00;;
11111;SDS011;5609;49.466;8.468;2022-10-31T02:38:55;11.73;;;9.47;;
11111;SDS011;5609;49.466;8.468;2022-10-31T02:41:34;12.37;;;9.10;;
11111;SDS011;5609;49.466;8.468;2022-10-31T02:44:11;10.83;;;9.13;;
11111;SDS011;5609;49.466;8.468;2022-10-31T02:46:44;12.20;;;9.23;;
11111;SDS011;5609;49.466;8.468;2022-10-31T02:49:16;15.10;;;11.03;;
11111;SDS011;5609;49.466;8.468;2022-10-31T02:51:48;12.80;;;9.33;;
11111;SDS011;5609;49.466;8.468;2022-10-31T02:54:18;12.73;;;9.20;;
11111;SDS011;5609;49.466;8.468;2022-10-31T02:56:49;10.67;;;9.23;;
11111;SDS011;5609;49.466;8.468;2022-10-31T02:59:17;13.63;;;9.60;;
11111;SDS011;5609;49.466;8.468;2022-10-31T03:04:45;12.53;;;9.47;;
11111;SDS011;5609;49.466;8.468;2022-10-31T03:07:35;13.70;;;9.03;;
11111;SDS011;5609;49.466;8.468;2022-10-31T03:10:11;12.57;;;9.97;;
11111;SDS011;5609;49.466;8.468;2022-10-31T03:12:45;12.33;;;9.87;;
11111;SDS011;5609;49.466;8.468;2022-10-31T03:15:21;13.23;;;10.30;;
11111;SDS011;5609;49.466;8.468;2022-10-31T03:17:54;17.03;;;9.90;;
11111;SDS011;5609;49.466;8.468;2022-10-31T03:20:27;15.07;;;9.80;;
11111;SDS011;5609;49.466;8.468;2022-10-31T03:22:57;12.77;;;9.87;;
11111;SDS011;5609;49.466;8.468;2022-10-31T03:25:25;12.93;;;9.80;;
11111;SDS011;5609;49.466;8.468;2022-10-31T03:27:53;14.00;;;10.27;;
11111;SDS011;5609;49.466;8.468;2022-10-31T03:30:20;12.60;;;10.17;;
11111;SDS011;5609;49.466;8.468;2022-10-31T03:32:48;13.33;;;9.13;;
11111;SDS011;5609;49.466;8.468;2022-10-31T03:35:19;13.53;;;10.00;;
11111;SDS011;5609;49.466;8.468;2022-10-31T03:37:49;13.57;;;10.00;;
11111;SDS011;5609;49.466;8.468;2022-10-31T03:40:19;11.77;;;9.50;;
11111;SDS011;5609;49.466;8.468;2022-10-31T03:42:50;12.57;;;9.50;;
11111;SDS011;5609;49.466;8.468;2022-10-31T03:45:20;12.37;;;9.57;;
11111;SDS011;5609;49.466;8.468;2022-10-31T03:47:50;12.87;;;9.50;;
11111;SDS011;5609;49.466;8.468;2022-10-31T03:50:19;11.87;;;8.70;;
11111;SDS011;5609;49.466;8.468;2022-10-31T03:52:49;13.37;;;9.00;;
11111;SDS011;5609;49.466;8.468;2022-10-31T03:55:23;13.93;;;9.93;;
11111;SDS011;5609;49.466;8.468;2022-10-31T03:57:55;11.77;;;9.40;;
11111;SDS011;5609;49.466;8.468;2022-10-31T04:00:26;11.53;;;9.53;;
11111;SDS011;5609;49.466;8.468;2022-10-31T04:02:53;13.03;;;9.67;;
11111;SDS011;5609;49.466;8.468;2022-10-31T04:05:24;12.83;;;9.07;;
11111;SDS011;5609;49.466;8.468;2022-10-31T04:07:53;11.83;;;9.30;;
11111;SDS011;5609;49.466;8.468;2022-10-31T04:10:22;11.33;;;9.03;;
11111;SDS011;5609;49.466;8.468;2022-10-31T04:12:52;10.60;;;8.80;;
11111;SDS011;5609;49.466;8.468;2022-10-31T04:15:25;12.73;;;9.10;;
11111;SDS011;5609;49.466;8.468;2022-10-31T04:17:53;13.73;;;8.80;;
11111;SDS011;5609;49.466;8.468;2022-10-31T04:20:31;11.57;;;8.90;;
11111;SDS011;5609;49.466;8.468;2022-10-31T04:22:58;10.83;;;8.87;;
11111;SDS011;5609;49.466;8.468;2022-10-31T04:25:26;11.77;;;8.90;;
11111;SDS011;5609;49.466;8.468;2022-10-31T04:27:52;11.03;;;9.37;;
11111;SDS011;5609;49.466;8.468;2022-10-31T04:30:19;11.93;;;9.60;;
11111;SDS011;5609;49.466;8.468;2022-10-31T04:32:46;12.07;;;8.77;;
11111;SDS011;5609;49.466;8.468;2022-10-31T04:35:13;10.57;;;8.70;;
11111;SDS011;5609;49.466;8.468;2022-10-31T04:37:42;11.07;;;8.50;;
11111;SDS011;5609;49.466;8.468;2022-10-31T04:40:09;10.47;;;8.40;;
11111;SDS011;5609;49.466;8.468;2022-10-31T04:42:36;13.57;;;8.63;;
11111;SDS011;5609;49.466;8.468;2022-10-31T04:45:03;12.37;;;9.20;;
11111;SDS011;5609;49.466;8.468;2022-10-31T04:47:31;11.10;;;9.90;;
11111;SDS011;5609;49.466;8.468;2022-10-31T04:49:58;13.67;;;10.53;;
11111;SDS011;5609;49.466;8.468;2022-10-31T04:52:25;31.43;;;20.33;;
11111;SDS011;5609;49.466;8.468;2022-10-31T04:54:53;35.90;;;24.80;;
11111;SDS011;5609;49.466;8.468;2022-10-31T04:57:20;31.37;;;23.30;;
11111;SDS011;5609;49.466;8.468;2022-10-31T04:59:47;30.23;;;22.17;;
11111;SDS011;5609;49.466;8.468;2022-10-31T05:02:14;23.93;;;16.77;;
11111;SDS011;5609;49.466;8.468;2022-10-31T05:04:41;17.73;;;14.00;;
11111;SDS011;5609;49.466;8.468;2022-10-31T05:07:08;20.53;;;14.20;;
11111;SDS011;5609;49.466;8.468;2022-10-31T05:09:35;15.50;;;13.50;;
11111;SDS011;5609;49.466;8.468;2022-10-31T05:12:04;14.80;;;13.17;;
11111;SDS011;5609;49.466;8.468;2022-10-31T05:14:31;19.17;;;13.43;;
11111;SDS011;5609;49.466;8.468;2022-10-31T05:16:58;17.37;;;12.73;;
11111;SDS011;5609;49.466;8.468;2022-10-31T05:19:25;12.70;;;10.60;;
11111;SDS011;5609;49.466;8.468;2022-10-31T05:21:52;18.10;;;10.93;;
11111;SDS011;5609;49.466;8.468;2022-10-31T05:24:19;13.47;;;10.23;;
11111;SDS011;5609;49.466;8.468;2022-10-31T05:26:46;13.30;;;10.57;;
11111;SDS011;5609;49.466;8.468;2022-10-31T05:29:15;13.50;;;10.43;;
11111;SDS011;5609;49.466;8.468;2022-10-31T05:31:42;14.00;;;10.20;;
11111;SDS011;5609;49.466;8.468;2022-10-31T05:34:09;12.13;;;9.67;;
11111;SDS011;5609;49.466;8.468;2022-10-31T05:36:36;12.47;;;9.40;;
11111;SDS011;5609;49.466;8.468;2022-10-31T05:39:03;11.27;;;9.47;;
11111;SDS011;5609;49.466;8.468;2022-10-31T05:41:30;14.87;;;9.30;;
11111;SDS011;5609;49.466;8.468;2022-10-31T05:43:57;15.47;;;9.80;;
11111;SDS011;5609;49.466;8.468;2022-10-31T05:46:26;16.97;;;10.13;;
11111;SDS011;5609;49.466;8.468;2022-10-31T05:48:53;13.67;;;9.90;;
11111;SDS011;5609;49.466;8.468;2022-10-31T05:51:20;13.70;;;10.23;;
11111;SDS011;5609;49.466;8.468;2022-10-31T05:53:47;13.53;;;10.33;;
11111;SDS011;5609;49.466;8.468;2022-10-31T05:56:14;12.93;;;10.60;;
11111;SDS011;5609;49.466;8.468;2022-10-31T05:58:41;15.57;;;10.10;;
11111;SDS011;5609;49.466;8.468;2022-10-31T06:01:08;15.13;;;9.73;;
11111;SDS011;5609;49.466;8.468;2022-10-31T06:03:37;11.87;;;9.33;;
11111;SDS011;5609;49.466;8.468;2022-10-31T06:06:04;12.83;;;9.20;;
11111;SDS011;5609;49.466;8.468;2022-10-31T06:08:31;13.93;;;9.47;;
11111;SDS011;5609;49.466;8.468;2022-10-31T06:10:58;12.37;;;9.33;;
11111;SDS011;5609;49.466;8.468;2022-10-31T06:13:25;11.77;;;9.07;;
11111;SDS011;5609;49.466;8.468;2022-10-31T06:15:53;11.80;;;9.20;;
11111;SDS011;5609;49.466;8.468;2022-10-31T06:18:20;12.27;;;9.07;;
11111;SDS011;5609;49.466;8.468;2022-10-31T06:20:48;13.23;;;9.40;;
11111;SDS011;5609;49.466;8.468;2022-10-31T06:23:15;11.87;;;9.07;;
11111;SDS011;5609;49.466;8.468;2022-10-31T06:25:42;12.67;;;9.10;;
11111;SDS011;5609;49.466;8.468;2022-10-31T06:28:09;12.53;;;9.33;;
11111;SDS011;5609;49.466;8.468;2022-10-31T06:30:37;10.93;;;9.07;;
11111;SDS011;5609;49.466;8.468;2022-10-31T06:33:04;11.67;;;9.53;;
11111;SDS011;5609;49.466;8.468;2022-10-31T06:35:32;11.83;;;9.50;;
11111;SDS011;5609;49.466;8.468;2022-10-31T06:38:00;13.50;;;8.90;;
11111;SDS011;5609;49.466;8.468;2022-10-31T06:40:27;14.47;;;9.43;;
11111;SDS011;5609;49.466;8.468;2022-10-31T06:42:58;15.77;;;9.40;;
11111;SDS011;5609;49.466;8.468;2022-10-31T06:45:25;13.93;;;10.17;;
11111;SDS011;5609;49.466;8.468;2022-10-31T06:47:52;13.53;;;10.13;;
11111;SDS011;5609;49.466;8.468;2022-10-31T06:50:20;13.30;;;9.30;;
11111;SDS011;5609;49.466;8.468;2022-10-31T06:52:49;12.83;;;9.17;;
11111;SDS011;5609;49.466;8.468;2022-10-31T06:55:18;14.53;;;9.90;;
11111;SDS011;5609;49.466;8.468;2022-10-31T06:57:50;13.03;;;9.07;;
11111;SDS011;5609;49.466;8.468;2022-10-31T07:00:17;16.03;;;9.60;;
11111;SDS011;5609;49.466;8.468;2022-10-31T07:02:52;13.00;;;9.40;;
11111;SDS011;5609;49.466;8.468;2022-10-31T07:05:19;13.67;;;9.10;;
11111;SDS011;5609;49.466;8.468;2022-10-31T07:07:46;12.23;;;9.07;;
11111;SDS011;5609;49.466;8.468;2022-10-31T07:10:13;13.10;;;9.07;;
11111;SDS011;5609;49.466;8.468;2022-10-31T07:12:42;13.07;;;8.87;;
11111;SDS011;5609;49.466;8.468;2022-10-31T07:15:09;11.43;;;9.07;;
11111;SDS011;5609;49.466;8.468;2022-10-31T07:17:36;11.67;;;9.83;;
11111;SDS011;5609;49.466;8.468;2022-10-31T07:20:03;11.10;;;9.00;;
11111;SDS011;5609;49.466;8.468;2022-10-31T07:22:34;12.13;;;8.87;;
11111;SDS011;5609;49.466;8.468;2022-10-31T07:25:01;13.27;;;8.83;;
11111;SDS011;5609;49.466;8.468;2022-10-31T07:27:28;12.93;;;10.10;;
11111;SDS011;5609;49.466;8.468;2022-10-31T07:29:57;12.03;;;8.97;;
11111;SDS011;5609;49.466;8.468;2022-10-31T07:32:24;11.93;;;8.87;;
11111;SDS011;5609;49.466;8.468;2022-10-31T07:34:51;12.40;;;8.90;;
11111;SDS011;5609;49.466;8.468;2022-10-31T07:37:18;12.67;;;9.20;;
11111;SDS011;5609;49.466;8.468;2022-10-31T07:39:45;13.83;;;8.87;;
11111;SDS011;5609;49.466;8.468;2022-10-31T07:42:12;11.73;;;8.67;;
11111;SDS011;5609;49.466;8.468;2022-10-31T07:44:39;12.53;;;8.80;;
11111;SDS011;5609;49.466;8.468;2022-10-31T07:47:08;12.97;;;8.97;;
11111;SDS011;5609;49.466;8.468;2022-10-31T07:49:35;14.80;;;8.83;;
11111;SDS011;5609;49.466;8.468;2022-10-31T07:52:02;11.13;;;8.13;;
11111;SDS011;5609;49.466;8.468;2022-10-31T07:54:30;12.07;;;8.13;;
11111;SDS011;5609;49.466;8.468;2022-10-31T07:56:57;12.27;;;8.37;;
11111;SDS011;5609;49.466;8.468;2022-10-31T07:59:24;11.73;;;8.43;;
11111;SDS011;5609;49.466;8.468;2022-10-31T08:01:52;12.90;;;9.17;;
11111;SDS011;5609;49.466;8.468;2022-10-31T08:04:20;12.43;;;8.80;;
11111;SDS011;5609;49.466;8.468;2022-10-31T08:06:48;11.13;;;8.20;;
11111;SDS011;5609;49.466;8.468;2022-10-31T08:09:15;12.13;;;8.87;;
11111;SDS011;5609;49.466;8.468;2022-10-31T08:11:42;12.40;;;9.10;;
11111;SDS011;5609;49.466;8.468;2022-10-31T08:14:09;14.20;;;9.40;;
11111;SDS011;5609;49.466;8.468;2022-10-31T08:16:36;11.53;;;9.10;;
11111;SDS011;5609;49.466;8.468;2022-10-31T08:19:03;11.73;;;8.90;;
11111;SDS011;5609;49.466;8.468;2022-10-31T08:21:31;10.47;;;8.83;;
11111;SDS011;5609;49.466;8.468;2022-10-31T08:23:59;12.07;;;9.20;;
11111;SDS011;5609;49.466;8.468;2022-10-31T08:26:26;10.93;;;9.27;;
11111;SDS011;5609;49.466;8.468;2022-10-31T08:28:53;12.67;;;8.67;;
11111;SDS011;5609;49.466;8.468;2022-10-31T08:31:20;10.53;;;8.50;;
11111;SDS011;5609;49.466;8.468;2022-10-31T08:33:48;11.03;;;8.47;;
11111;SDS011;5609;49.466;8.468;2022-10-31T08:36:16;14.80;;;10.07;;
11111;SDS011;5609;49.466;8.468;2022-10-31T08:38:44;14.17;;;9.57;;
11111;SDS011;5609;49.466;8.468;2022-10-31T08:41:13;13.83;;;9.30;;
11111;SDS011;5609;49.466;8.468;2022-10-31T08:43:40;11.27;;;8.53;;
11111;SDS011;5609;49.466;8.468;2022-10-31T08:46:07;14.53;;;9.90;;
11111;SDS011;5609;49.466;8.468;2022-10-31T08:48:34;12.10;;;9.20;;
11111;SDS011;5609;49.466;8.468;2022-10-31T08:51:01;13.07;;;9.80;;
11111;SDS011;5609;49.466;8.468;2022-10-31T08:53:29;12.73;;;8.97;;
11111;SDS011;5609;49.466;8.468;2022-10-31T08:55:57;12.60;;;9.40;;
11111;SDS011;5609;49.466;8.468;2022-10-31T08:58:24;14.00;;;10.17;;
11111;SDS011;5609;49.466;8.468;2022-10-31T09:00:53;13.27;;;9.23;;
11111;SDS011;5609;49.466;8.468;2022-10-31T09:03:22;11.93;;;9.47;;
11111;SDS011;5609;49.466;8.468;2022-10-31T09:05:50;14.10;;;10.47;;
11111;SDS011;5609;49.466;8.468;2022-10-31T09:08:17;16.30;;;10.23;;
11111;SDS011;5609;49.466;8.468;2022-10-31T09:10:45;14.07;;;10.73;;
11111;SDS011;5609;49.466;8.468;2022-10-31T09:13:14;13.73;;;9.13;;
11111;SDS011;5609;49.466;8.468;2022-10-31T09:15:42;18.10;;;12.37;;
11111;SDS011;5609;49.466;8.468;2022-10-31T09:18:10;16.77;;;10.63;;
11111;SDS011;5609;49.466;8.468;2022-10-31T09:20:38;18.07;;;11.43;;
11111;SDS011;5609;49.466;8.468;2022-10-31T09:23:06;15.10;;;10.83;;
11111;SDS011;5609;49.466;8.468;2022-10-31T09:25:34;12.83;;;9.70;;
11111;SDS011;5609;49.466;8.468;2022-10-31T09:28:02;16.67;;;11.33;;
11111;SDS011;5609;49.466;8.468;2022-10-31T09:30:31;14.87;;;12.43;;
11111;SDS011;5609;49.466;8.468;2022-10-31T09:32:59;17.70;;;12.53;;
11111;SDS011;5609;49.466;8.468;2022-10-31T09:35:27;15.37;;;13.77;;
11111;SDS011;5609;49.466;8.468;2022-10-31T09:37:54;18.50;;;14.67;;
11111;SDS011;5609;49.466;8.468;2022-10-31T09:40:22;14.27;;;12.03;;
11111;SDS011;5609;49.466;8.468;2022-10-31T09:42:54;15.57;;;13.23;;
11111;SDS011;5609;49.466;8.468;2022-10-31T09:45:25;15.77;;;13.57;;
11111;SDS011;5609;49.466;8.468;2022-10-31T09:47:59;16.47;;;14.77;;
11111;SDS011;5609;49.466;8.468;2022-10-31T09:50:28;18.17;;;13.73;;
11111;SDS011;5609;49.466;8.468;2022-10-31T09:52:58;15.47;;;13.57;;
11111;SDS011;5609;49.466;8.468;2022-10-31T09:55:29;16.27;;;12.47;;
11111;SDS011;5609;49.466;8.468;2022-10-31T09:57:58;12.40;;;10.87;;
11111;SDS011;5609;49.466;8.468;2022-10-31T10:00:26;16.87;;;13.50;;
11111;SDS011;5609;49.466;8.468;2022-10-31T10:02:56;15.07;;;11.60;;
11111;SDS011;5609;49.466;8.468;2022-10-31T10:05:26;15.70;;;13.37;;
11111;SDS011;5609;49.466;8.468;2022-10-31T10:07:55;15.10;;;12.30;;
11111;SDS011;5609;49.466;8.468;2022-10-31T10:10:25;19.07;;;13.87;;
11111;SDS011;5609;49.466;8.468;2022-10-31T10:13:00;16.70;;;12.77;;
11111;SDS011;5609;49.466;8.468;2022-10-31T10:15:37;15.93;;;12.00;;
11111;SDS011;5609;49.466;8.468;2022-10-31T10:18:11;17.23;;;11.60;;
11111;SDS011;5609;49.466;8.468;2022-10-31T10:20:44;14.73;;;12.53;;
11111;SDS011;5609;49.466;8.468;2022-10-31T10:23:23;15.23;;;12.97;;
11111;SDS011;5609;49.466;8.468;2022-10-31T10:25:55;15.30;;;13.20;;
11111;SDS011;5609;49.466;8.468;2022-10-31T10:28:25;19.23;;;14.57;;
11111;SDS011;5609;49.466;8.468;2022-10-31T10:30:53;16.10;;;14.10;;
11111;SDS011;5609;49.466;8.468;2022-10-31T10:33:22;14.17;;;12.27;;
11111;SDS011;5609;49.466;8.468;2022-10-31T10:35:52;16.53;;;13.13;;
11111;SDS011;5609;49.466;8.468;2022-10-31T10:38:27;17.43;;;15.30;;
11111;SDS011;5609;49.466;8.468;2022-10-31T10:40:55;15.87;;;13.17;;
11111;SDS011;5609;49.466;8.468;2022-10-31T10:43:26;17.40;;;15.30;;
11111;SDS011;5609;49.466;8.468;2022-10-31T10:46:00;20.27;;;14.97;;
11111;SDS011;5609;49.466;8.468;2022-10-31T10:48:50;22.30;;;15.90;;
11111;SDS011;5609;49.466;8.468;2022-10-31T10:51:25;16.10;;;13.73;;
11111;SDS011;5609;49.466;8.468;2022-10-31T10:53:58;20.37;;;15.53;;
11111;SDS011;5609;49.466;8.468;2022-10-31T10:59:15;18.10;;;15.50;;
11111;SDS011;5609;49.466;8.468;2022-10-31T11:01:43;20.20;;;16.17;;
11111;SDS011;5609;49.466;8.468;2022-10-31T11:04:21;16.23;;;14.37;;
11111;SDS011;5609;49.466;8.468;2022-10-31T11:06:57;16.90;;;15.10;;
11111;SDS011;5609;49.466;8.468;2022-10-31T11:09:24;17.70;;;15.90;;
11111;SDS011;5609;49.466;8.468;2022-10-31T11:11:51;16.90;;;14.63;;
11111;SDS011;5609;49.466;8.468;2022-10-31T11:14:19;19.87;;;16.97;;
11111;SDS011;5609;49.466;8.468;2022-10-31T11:16:50;23.53;;;17.10;;
11111;SDS011;5609;49.466;8.468;2022-10-31T11:19:17;19.57;;;16.00;;
11111;SDS011;5609;49.466;8.468;2022-10-31T11:21:46;17.87;;;16.00;;
11111;SDS011;5609;49.466;8.468;2022-10-31T11:24:15;15.97;;;13.27;;
11111;SDS011;5609;49.466;8.468;2022-10-31T11:26:43;19.27;;;17.07;;
11111;SDS011;5609;49.466;8.468;2022-10-31T11:29:12;20.00;;;16.43;;
11111;SDS011;5609;49.466;8.468;2022-10-31T11:31:40;19.27;;;16.50;;
11111;SDS011;5609;49.466;8.468;2022-10-31T11:34:12;19.97;;;16.93;;
11111;SDS011;5609;49.466;8.468;2022-10-31T11:36:42;21.83;;;17.07;;
11111;SDS011;5609;49.466;8.468;2022-10-31T11:39:13;18.20;;;16.10;;
11111;SDS011;5609;49.466;8.468;2022-10-31T11:41:43;16.07;;;14.13;;
11111;SDS011;5609;49.466;8.468;2022-10-31T11:44:11;18.80;;;16.80;;
11111;SDS011;5609;49.466;8.468;2022-10-31T11:46:40;22.40;;;17.30;;
11111;SDS011;5609;49.466;8.468;2022-10-31T11:49:11;22.47;;;17.00;;
11111;SDS011;5609;49.466;8.468;2022-10-31T11:51:40;21.43;;;17.93;;
11111;SDS011;5609;49.466;8.468;2022-10-31T11:54:15;23.27;;;18.20;;
11111;SDS011;5609;49.466;8.468;2022-10-31T11:56:46;23.50;;;17.93;;
11111;SDS011;5609;49.466;8.468;2022-10-31T11:59:24;21.17;;;17.30;;
11111;SDS011;5609;49.466;8.468;2022-10-31T12:01:52;22.07;;;17.30;;
11111;SDS011;5609;49.466;8.468;2022-10-31T12:04:23;19.10;;;17.07;;
11111;SDS011;5609;49.466;8.468;2022-10-31T12:06:51;19.90;;;15.83;;
11111;SDS011;5609;49.466;8.468;2022-10-31T12:09:20;18.67;;;15.77;;
11111;SDS011;5609;49.466;8.468;2022-10-31T12:11:56;24.80;;;18.23;;
11111;SDS011;5609;49.466;8.468;2022-10-31T12:14:29;22.63;;;19.43;;
11111;SDS011;5609;49.466;8.468;2022-10-31T12:17:00;25.33;;;20.17;;
11111;SDS011;5609;49.466;8.468;2022-10-31T12:19:30;25.20;;;19.30;;
11111;SDS011;5609;49.466;8.468;2022-10-31T12:22:04;20.07;;;17.27;;
11111;SDS011;5609;49.466;8.468;2022-10-31T12:24:37;24.50;;;18.53;;
11111;SDS011;5609;49.466;8.468;2022-10-31T12:27:10;21.13;;;18.73;;
11111;SDS011;5609;49.466;8.468;2022-10-31T12:29:44;23.53;;;19.63;;
11111;SDS011;5609;49.466;8.468;2022-10-31T12:32:17;20.93;;;17.83;;
11111;SDS011;5609;49.466;8.468;2022-10-31T12:35:00;24.77;;;19.23;;
11111;SDS011;5609;49.466;8.468;2022-10-31T12:37:35;23.83;;;19.33;;
11111;SDS011;5609;49.466;8.468;2022-10-31T12:40:11;20.93;;;18.73;;
11111;SDS011;5609;49.466;8.468;2022-10-31T12:42:51;22.40;;;17.53;;
11111;SDS011;5609;49.466;8.468;2022-10-31T12:45:29;21.30;;;17.27;;
11111;SDS011;5609;49.466;8.468;2022-10-31T12:48:10;18.83;;;16.83;;
11111;SDS011;5609;49.466;8.468;2022-10-31T12:50:45;20.53;;;14.90;;
11111;SDS011;5609;49.466;8.468;2022-10-31T12:53:19;20.23;;;15.60;;
11111;SDS011;5609;49.466;8.468;2022-10-31T12:55:54;20.57;;;15.13;;
11111;SDS011;5609;49.466;8.468;2022-10-31T12:58:24;19.17;;;15.67;;
11111;SDS011;5609;49.466;8.468;2022-10-31T13:00:55;18.50;;;13.93;;
11111;SDS011;5609;49.466;8.468;2022-10-31T13:03:25;18.77;;;14.57;;
11111;SDS011;5609;49.466;8.468;2022-10-31T13:05:54;20.60;;;14.80;;
11111;SDS011;5609;49.466;8.468;2022-10-31T13:08:26;19.27;;;15.10;;
11111;SDS011;5609;49.466;8.468;2022-10-31T13:10:57;18.70;;;15.87;;
11111;SDS011;5609;49.466;8.468;2022-10-31T13:13:33;25.70;;;18.17;;
11111;SDS011;5609;49.466;8.468;2022-10-31T13:16:04;22.60;;;18.00;;
11111;SDS011;5609;49.466;8.468;2022-10-31T13:18:33;24.40;;;19.87;;
11111;SDS011;5609;49.466;8.468;2022-10-31T13:21:03;26.50;;;18.97;;
11111;SDS011;5609;49.466;8.468;2022-10-31T13:23:31;28.93;;;20.33;;
11111;SDS011;5609;49.466;8.468;2022-10-31T13:25:59;24.17;;;17.13;;
11111;SDS011;5609;49.466;8.468;2022-10-31T13:28:29;22.23;;;19.10;;
11111;SDS011;5609;49.466;8.468;2022-10-31T13:30:59;24.13;;;17.10;;
11111;SDS011;5609;49.466;8.468;2022-10-31T13:33:27;26.17;;;17.67;;
11111;SDS011;5609;49.466;8.468;2022-10-31T13:36:00;21.90;;;16.47;;
11111;SDS011;5609;49.466;8.468;2022-10-31T13:38:32;22.53;;;17.27;;
11111;SDS011;5609;49.466;8.468;2022-10-31T13:41:04;21.80;;;16.10;;
11111;SDS011;5609;49.466;8.468;2022-10-31T13:43:36;19.13;;;15.93;;
11111;SDS011;5609;49.466;8.468;2022-10-31T13:46:25;24.43;;;19.30;;
11111;SDS011;5609;49.466;8.468;2022-10-31T13:49:00;24.67;;;19.43;;
11111;SDS011;5609;49.466;8.468;2022-10-31T13:51:28;22.27;;;18.03;;
11111;SDS011;5609;49.466;8.468;2022-10-31T13:53:57;20.80;;;17.90;;
11111;SDS011;5609;49.466;8.468;2022-10-31T13:56:27;23.73;;;18.00;;
11111;SDS011;5609;49.466;8.468;2022-10-31T13:58:57;24.00;;;18.37;;
11111;SDS011;5609;49.466;8.468;2022-10-31T14:01:53;22.17;;;18.27;;
11111;SDS011;5609;49.466;8.468;2022-10-31T14:04:22;21.60;;;18.07;;
11111;SDS011;5609;49.466;8.468;2022-10-31T14:06:55;23.13;;;16.93;;
11111;SDS011;5609;49.466;8.468;2022-10-31T14:09:27;23.17;;;17.03;;
11111;SDS011;5609;49.466;8.468;2022-10-31T14:11:56;23.60;;;17.13;;
11111;SDS011;5609;49.466;8.468;2022-10-31T14:14:28;21.33;;;14.77;;
11111;SDS011;5609;49.466;8.468;2022-10-31T14:17:01;18.23;;;13.43;;
11111;SDS011;5609;49.466;8.468;2022-10-31T14:19:28;18.43;;;13.37;;
11111;SDS011;5609;49.466;8.468;2022-10-31T14:21:55;17.33;;;13.87;;
11111;SDS011;5609;49.466;8.468;2022-10-31T14:24:31;15.50;;;13.03;;
11111;SDS011;5609;49.466;8.468;2022-10-31T14:27:32;19.23;;;13.20;;
11111;SDS011;5609;49.466;8.468;2022-10-31T14:30:08;17.80;;;13.43;;
11111;SDS011;5609;49.466;8.468;2022-10-31T14:32:46;18.53;;;13.80;;
11111;SDS011;5609;49.466;8.468;2022-10-31T14:35:17;16.53;;;13.83;;
11111;SDS011;5609;49.466;8.468;2022-10-31T14:37:56;19.80;;;14.67;;
11111;SDS011;5609;49.466;8.468;2022-10-31T14:40:40;17.07;;;14.13;;
11111;SDS011;5609;49.466;8.468;2022-10-31T14:43:28;17.80;;;13.83;;
11111;SDS011;5609;49.466;8.468;2022-10-31T14:46:06;20.80;;;13.93;;
11111;SDS011;5609;49.466;8.468;2022-10-31T14:51:32;21.80;;;14.73;;
11111;SDS011;5609;49.466;8.468;2022-10-31T14:54:02;18.67;;;14.43;;
11111;SDS011;5609;49.466;8.468;2022-10-31T14:56:33;18.67;;;15.40;;
11111;SDS011;5609;49.466;8.468;2022-10-31T14:59:04;19.40;;;15.10;;
11111;SDS011;5609;49.466;8.468;2022-10-31T15:01:35;20.80;;;16.60;;
11111;SDS011;5609;49.466;8.468;2022-10-31T15:04:07;22.67;;;18.73;;
11111;SDS011;5609;49.466;8.468;2022-10-31T15:06:39;23.83;;;18.43;;